Time;durP1;ratioP1;P1;durP2;ratioP2;P2;SDS_P1;SDS_P2;PMS_P1;PMS_P2;Temp;Humidity;BMP_temperature;BMP_pressure;BME280_temperature;BME280_humidity;BME280_pressure;Samples;Min_cycle;Max_cycle;Signal;HPM_P1;HPM_P2
2023/07/06 00:02:26;;;;;;;;;;;;;;;18.30;76.21;101040.55;107751;1254;59592;-86
2023/07/06 00:04:54;;;;;;;;;;;;;;;18.27;76.17;101040.19;107544;1253;125126;-85
2023/07/06 00:07:23;;;;;;;;;;;;;;;18.24;76.37;101041.98;107690;1253;65213;-85
2023/07/06 00:10:08;;;;;;;;;;;;;;;18.25;76.19;101047.30;107702;1254;71383;-85
2023/07/06 00:12:36;;;;;;;;;;;;;;;18.24;76.29;101054.05;107476;1254;61311;-85
2023/07/06 00:15:04;;;;;;;;;;;;;;;18.24;76.40;101056.71;107829;1254;61129;-81
2023/07/06 00:17:31;;;;;;;;;;;;;;;18.25;76.47;101057.08;108192;1254;125045;-81
2023/07/06 00:19:59;;;;;;;;;;;;;;;18.25;76.48;101051.58;108639;1254;65901;-81
2023/07/06 00:22:26;;;;;;;;;;;;;;;18.24;76.36;101050.69;108228;1253;125751;-81
2023/07/06 00:24:54;;;;;;;;;;;;;;;18.23;76.39;101048.38;109142;1253;59726;-82
2023/07/06 00:27:21;;;;;;;;;;;;;;;18.20;76.43;101043.40;109175;1254;59860;-79
2023/07/06 00:30:04;;;;;;;;;;;;;;;18.19;76.48;101040.73;108964;1254;125424;-81
2023/07/06 00:32:32;;;;;;;;;;;;;;;18.19;76.54;101043.42;108774;1254;65582;-79
2023/07/06 00:35:00;;;;;;;;;;;;;;;18.18;76.61;101043.95;107701;1254;125020;-80
2023/07/06 00:37:29;;;;;;;;;;;;;;;18.17;76.62;101042.00;108104;1254;59385;-80
2023/07/06 00:39:56;;;;;;;;;;;;;;;18.13;76.46;101042.17;108045;1253;59964;-80
2023/07/06 00:42:22;;;;;;;;;;;;;;;18.10;76.58;101048.22;107737;1254;125451;-80
2023/07/06 00:44:50;;;;;;;;;;;;;;;18.11;76.78;101052.65;108093;1254;65594;-80
2023/07/06 00:47:20;;;;;;;;;;;;;;;18.11;76.75;101054.77;107657;1254;125081;-84
2023/07/06 00:49:49;;;;;;;;;;;;;;;18.12;76.67;101055.67;107380;1256;61164;-84
2023/07/06 00:52:16;;;;;;;;;;;;;;;18.11;76.67;101059.40;107445;1254;125375;-84
2023/07/06 00:54:43;;;;;;;;;;;;;;;18.08;76.67;101057.98;107494;1258;74688;-84
2023/07/06 00:57:16;;;;;;;;;;;;;;;18.04;76.64;101056.20;107540;1253;65496;-84
2023/07/06 01:00:12;;;;;;;;;;;;;;;18.01;76.58;101055.33;107358;1254;124855;-84
2023/07/06 01:02:59;;;;;;;;;;;;;;;17.98;76.55;101060.30;107390;1258;61126;-84
2023/07/06 01:05:26;;;;;;;;;;;;;;;17.95;76.59;101060.66;107976;1254;125498;-80
2023/07/06 01:07:53;;;;;;;;;;;;;;;17.91;76.59;101058.17;107997;1259;73466;-80
2023/07/06 01:10:20;;;;;;;;;;;;;;;17.88;76.62;101056.58;108144;1254;125247;-80
2023/07/06 01:12:47;;;;;;;;;;;;;;;17.84;76.61;101057.09;108175;1258;70096;-80
2023/07/06 01:15:16;;;;;;;;;;;;;;;17.77;76.54;101052.10;108119;1253;60058;-80
2023/07/06 01:17:53;;;;;;;;;;;;;;;17.71;76.54;101045.18;107859;1253;125311;-80
2023/07/06 01:20:23;;;;;;;;;;;;;;;17.62;76.51;101040.38;107940;1256;73451;-80
2023/07/06 01:23:10;;;;;;;;;;;;;;;17.55;76.56;101044.99;107932;1254;125868;-80
2023/07/06 01:25:43;;;;;;;;;;;;;;;17.48;76.67;101043.91;108130;1254;72658;-80
2023/07/06 01:28:19;;;;;;;;;;;;;;;17.42;76.76;101041.25;108200;1254;125743;-80
2023/07/06 01:30:55;;;;;;;;;;;;;;;17.37;76.81;101043.55;108426;1254;61708;-80
2023/07/06 01:33:26;;;;;;;;;;;;;;;17.32;76.88;101041.76;108234;1253;73038;-79
2023/07/06 01:35:53;;;;;;;;;;;;;;;17.26;76.96;101039.98;107730;1254;125409;-79
2023/07/06 01:38:22;;;;;;;;;;;;;;;17.22;77.06;101042.09;107818;1254;71334;-79
2023/07/06 01:40:49;;;;;;;;;;;;;;;17.18;76.98;101041.38;108203;1254;125110;-80
2023/07/06 01:43:20;;;;;;;;;;;;;;;17.12;77.04;101044.38;108253;1254;59676;-80
2023/07/06 01:45:47;;;;;;;;;;;;;;;17.07;77.19;101041.00;108011;1254;74387;-80
2023/07/06 01:48:15;;;;;;;;;;;;;;;17.05;77.20;101044.01;108902;1253;125051;-80
2023/07/06 01:50:53;;;;;;;;;;;;;;;17.01;77.29;101042.05;109246;1254;72711;-80
2023/07/06 01:53:34;;;;;;;;;;;;;;;16.98;77.28;101043.80;108862;1254;124769;-80
2023/07/06 01:56:05;;;;;;;;;;;;;;;16.93;77.17;101049.82;108256;1253;59600;-80
2023/07/06 01:58:37;;;;;;;;;;;;;;;16.86;77.18;101044.84;108110;1253;125811;-80
2023/07/06 02:01:05;;;;;;;;;;;;;;;16.82;77.18;101047.45;107783;1259;67043;-79
2023/07/06 02:03:32;;;;;;;;;;;;;;;16.77;77.16;101045.65;107757;1254;73384;-80
2023/07/06 02:06:01;;;;;;;;;;;;;;;16.73;77.19;101045.45;108053;1254;125455;-80
2023/07/06 02:08:28;;;;;;;;;;;;;;;16.69;77.29;101047.73;108021;1254;59799;-80
2023/07/06 02:10:56;;;;;;;;;;;;;;;16.69;77.44;101050.58;107667;1254;125084;-80
2023/07/06 02:13:23;;;;;;;;;;;;;;;16.68;77.50;101052.69;107717;1253;65681;-80
2023/07/06 02:15:50;;;;;;;;;;;;;;;16.66;77.48;101059.77;107813;1254;71349;-79
2023/07/06 02:18:24;;;;;;;;;;;;;;;16.64;77.54;101057.81;107828;1254;124937;-79
2023/07/06 02:20:53;;;;;;;;;;;;;;;16.61;77.43;101064.88;108032;1254;59264;-79
2023/07/06 02:23:20;;;;;;;;;;;;;;;16.59;77.49;101066.82;108005;1254;124804;-80
2023/07/06 02:25:47;;;;;;;;;;;;;;;16.56;77.47;101065.39;107867;1254;67029;-80
2023/07/06 02:28:13;;;;;;;;;;;;;;;16.51;77.46;101068.91;107686;1254;125939;-80
2023/07/06 02:30:43;;;;;;;;;;;;;;;16.46;77.43;101069.95;107852;1253;61202;-80
2023/07/06 02:33:10;;;;;;;;;;;;;;;16.41;77.48;101068.48;107820;1253;61837;-80
2023/07/06 02:35:37;;;;;;;;;;;;;;;16.35;77.48;101072.52;107768;1254;125644;-80
2023/07/06 02:38:04;;;;;;;;;;;;;;;16.30;77.48;101074.98;107746;1254;67039;-80
2023/07/06 02:40:32;;;;;;;;;;;;;;;16.25;77.42;101075.48;107693;1254;125715;-80
2023/07/06 02:43:01;;;;;;;;;;;;;;;16.20;77.49;101078.62;107796;1253;59372;-79
2023/07/06 02:45:28;;;;;;;;;;;;;;;16.13;77.58;101079.64;107907;1253;60488;-80
2023/07/06 02:47:55;;;;;;;;;;;;;;;16.08;77.56;101087.02;108184;1254;125196;-80
2023/07/06 02:50:23;;;;;;;;;;;;;;;16.03;77.60;101088.24;108195;1254;67068;-80
2023/07/06 02:52:50;;;;;;;;;;;;;;;15.99;77.67;101092.80;107700;1254;125837;-80
2023/07/06 02:55:17;;;;;;;;;;;;;;;15.95;77.68;101092.77;107814;1254;61379;-80
2023/07/06 02:57:44;;;;;;;;;;;;;;;15.91;77.76;101088.66;107786;1253;61331;-80
2023/07/06 03:00:16;;;;;;;;;;;;;;;15.89;77.87;101091.13;107782;1254;125433;-80
2023/07/06 03:02:44;;;;;;;;;;;;;;;15.86;77.88;101095.88;107846;1254;65630;-80
2023/07/06 03:05:11;;;;;;;;;;;;;;;15.82;77.95;101095.14;108027;1254;124764;-80
2023/07/06 03:07:38;;;;;;;;;;;;;;;15.80;77.87;101099.70;108165;1253;59509;-80
2023/07/06 03:10:05;;;;;;;;;;;;;;;15.78;77.99;101102.17;108206;1254;59341;-80
2023/07/06 03:12:36;;;;;;;;;;;;;;;15.74;78.04;101103.73;108158;1254;124957;-80
2023/07/06 03:15:06;;;;;;;;;;;;;;;15.72;77.93;101106.33;108241;1254;67665;-80
2023/07/06 03:17:33;;;;;;;;;;;;;;;15.72;78.07;101108.64;108007;1254;125239;-80
2023/07/06 03:20:01;;;;;;;;;;;;;;;15.72;78.05;101111.11;108031;1253;60061;-80
2023/07/06 03:22:31;;;;;;;;;;;;;;;15.73;78.18;101114.48;107927;1254;125049;-80
2023/07/06 03:24:59;;;;;;;;;;;;;;;15.73;78.17;101108.13;107813;1254;74413;-79
2023/07/06 03:27:26;;;;;;;;;;;;;;;15.76;78.26;101107.98;107791;1254;65498;-80
2023/07/06 03:29:53;;;;;;;;;;;;;;;15.81;78.38;101108.23;107548;1254;125527;-80
2023/07/06 03:32:20;;;;;;;;;;;;;;;15.92;78.64;101110.09;107982;1257;59586;-79
2023/07/06 03:34:47;;;;;;;;;;;;;;;16.25;79.70;101108.05;108127;1253;125181;-79
2023/07/06 03:37:14;;;;;;;;;;;;;;;16.77;79.36;101108.21;108208;1254;74935;-80
2023/07/06 03:39:41;;;;;;;;;;;;;;;16.97;78.33;101112.94;108355;1254;66045;-80
2023/07/06 03:42:09;;;;;;;;;;;;;;;17.09;78.04;101117.42;109025;1253;125628;-80
2023/07/06 03:44:36;;;;;;;;;;;;;;;17.27;77.72;101121.73;109188;1254;59382;-80
2023/07/06 03:47:03;;;;;;;;;;;;;;;17.48;77.57;101123.23;109065;1252;125502;-80
2023/07/06 03:49:34;;;;;;;;;;;;;;;17.73;77.11;101124.89;109208;1253;74568;-80
2023/07/06 03:52:02;;;;;;;;;;;;;;;18.26;77.60;101126.52;109222;1253;67029;-80
2023/07/06 03:54:29;;;;;;;;;;;;;;;19.69;79.15;101129.21;108877;1254;125190;-80
2023/07/06 03:56:57;;;;;;;;;;;;;;;21.83;78.74;101127.09;109131;1252;59558;-80
2023/07/06 03:59:24;;;;;;;;;;;;;;;24.00;76.19;101127.85;108924;1253;125076;-80
2023/07/06 04:01:51;;;;;;;;;;;;;;;25.87;72.42;101126.38;108484;1256;74675;-80
2023/07/06 04:04:18;;;;;;;;;;;;;;;27.45;69.32;101126.35;108144;1254;124338;-80
2023/07/06 04:06:45;;;;;;;;;;;;;;;28.99;66.46;101125.64;108378;1253;72604;-80
2023/07/06 04:09:12;;;;;;;;;;;;;;;30.31;63.58;101128.70;108325;1254;59240;-80
2023/07/06 04:11:40;;;;;;;;;;;;;;;31.53;60.88;101130.14;108127;1254;124487;-80
2023/07/06 04:14:06;;;;;;;;;;;;;;;32.64;58.21;101131.85;108171;1254;66194;-80
2023/07/06 04:16:33;;;;;;;;;;;;;;;33.58;55.66;101128.98;108037;1254;124470;-81
2023/07/06 04:19:02;;;;;;;;;;;;;;;34.44;53.32;101133.98;108080;1254;62760;-79
2023/07/06 04:21:30;;;;;;;;;;;;;;;35.22;51.04;101133.96;107930;1254;61272;-80
2023/07/06 04:23:57;;;;;;;;;;;;;;;35.99;49.23;101135.45;107815;1254;124380;-80
2023/07/06 04:26:24;;;;;;;;;;;;;;;36.75;47.41;101141.83;107944;1254;64778;-80
2023/07/06 04:28:51;;;;;;;;;;;;;;;37.32;45.53;101142.21;107889;1256;124760;-80
2023/07/06 04:31:18;;;;;;;;;;;;;;;37.90;44.02;101146.21;107930;1254;62409;-80
2023/07/06 04:33:45;;;;;;;;;;;;;;;38.38;42.46;101148.53;108094;1253;59951;-80
2023/07/06 04:36:13;;;;;;;;;;;;;;;38.95;41.37;101152.42;107965;1254;124259;-79
2023/07/06 04:38:41;;;;;;;;;;;;;;;39.57;39.99;101160.27;107765;1254;66061;-80
2023/07/06 04:41:09;;;;;;;;;;;;;;;40.17;38.71;101158.27;107876;1253;124061;-80
2023/07/06 04:43:36;;;;;;;;;;;;;;;40.76;37.52;101160.36;108028;1254;72311;-80
2023/07/06 04:46:03;;;;;;;;;;;;;;;41.22;36.45;101158.64;107874;1254;61233;-80
2023/07/06 04:48:33;;;;;;;;;;;;;;;41.66;35.76;101157.96;108018;1253;125184;-80
2023/07/06 04:51:00;;;;;;;;;;;;;;;42.21;34.87;101161.79;107961;1253;66020;-80
2023/07/06 04:53:28;;;;;;;;;;;;;;;42.69;33.56;101170.13;107588;1259;124838;-80
2023/07/06 04:55:59;;;;;;;;;;;;;;;43.02;32.70;101169.43;107665;1254;65361;-80
2023/07/06 04:58:28;;;;;;;;;;;;;;;43.35;31.84;101172.91;107740;1254;124854;-80
2023/07/06 05:00:57;;;;;;;;;;;;;;;43.81;30.98;101175.56;107700;1254;61369;-85
2023/07/06 05:03:24;;;;;;;;;;;;;;;44.02;29.97;101175.96;107874;1254;66106;-79
2023/07/06 05:05:51;;;;;;;;;;;;;;;44.14;28.93;101173.69;107891;1254;124473;-79
2023/07/06 05:08:21;;;;;;;;;;;;;;;44.21;28.46;101175.88;107460;1254;62814;-86
2023/07/06 05:10:50;;;;;;;;;;;;;;;44.26;27.79;101179.48;107563;1254;124649;-86
2023/07/06 05:13:19;;;;;;;;;;;;;;;44.13;26.96;101180.23;107568;1254;61202;-86
2023/07/06 05:15:55;;;;;;;;;;;;;;;44.00;26.45;101180.71;107337;1254;66464;-86
2023/07/06 05:18:29;;;;;;;;;;;;;;;43.99;26.06;101181.65;107376;1254;124247;-86
2023/07/06 05:20:58;;;;;;;;;;;;;;;44.15;25.71;101184.91;107708;1253;62817;-84
2023/07/06 05:23:32;;;;;;;;;;;;;;;44.41;24.93;101183.70;107585;1254;124212;-85
2023/07/06 05:26:02;;;;;;;;;;;;;;;44.64;24.49;101186.73;107753;1253;59828;-86
2023/07/06 05:28:30;;;;;;;;;;;;;;;44.69;24.07;101185.93;107943;1254;124671;-85
2023/07/06 05:31:04;;;;;;;;;;;;;;;44.71;23.65;101189.81;107796;1254;59904;-86
2023/07/06 05:33:34;;;;;;;;;;;;;;;44.72;23.11;101189.46;107691;1253;62756;-85
2023/07/06 05:36:01;;;;;;;;;;;;;;;44.76;22.83;101195.36;107660;1253;124024;-85
2023/07/06 05:38:29;;;;;;;;;;;;;;;44.84;22.44;101194.34;107893;1254;59336;-88
2023/07/06 05:41:00;;;;;;;;;;;;;;;44.69;22.13;101197.59;107525;1254;124439;-80
2023/07/06 05:43:27;;;;;;;;;;;;;;;44.61;21.93;101199.92;107635;1254;60562;-82
2023/07/06 05:45:54;;;;;;;;;;;;;;;43.44;21.33;101199.05;107755;1253;64048;-84
2023/07/06 05:48:21;;;;;;;;;;;;;;;40.69;21.24;101191.33;107766;1253;124376;-83
2023/07/06 05:50:48;;;;;;;;;;;;;;;37.70;22.10;101187.27;107784;1254;61200;-84
2023/07/06 05:53:23;;;;;;;;;;;;;;;35.15;23.45;101190.73;107551;1254;124226;-84
2023/07/06 05:56:02;;;;;;;;;;;;;;;32.91;24.51;101192.95;107635;1254;60103;-84
2023/07/06 05:58:37;;;;;;;;;;;;;;;31.10;26.21;101197.77;107439;1254;124268;-85
2023/07/06 06:01:11;;;;;;;;;;;;;;;29.75;27.41;101197.71;107698;1254;60020;-84
2023/07/06 06:03:45;;;;;;;;;;;;;;;28.31;28.43;101197.40;107943;1256;60629;-84
2023/07/06 06:06:12;;;;;;;;;;;;;;;27.25;29.63;101194.20;107450;1254;124764;-85
2023/07/06 06:08:39;;;;;;;;;;;;;;;26.52;30.73;101201.98;107445;1254;65805;-85
2023/07/06 06:11:12;;;;;;;;;;;;;;;25.85;31.31;101203.77;107678;1254;124260;-84
2023/07/06 06:13:49;;;;;;;;;;;;;;;25.29;32.50;101206.15;107880;1254;59747;-83
2023/07/06 06:16:17;;;;;;;;;;;;;;;24.80;33.15;101205.38;107781;1254;124642;-84
2023/07/06 06:18:46;;;;;;;;;;;;;;;24.27;33.63;101211.35;108002;1254;74672;-84
2023/07/06 06:21:13;;;;;;;;;;;;;;;23.78;34.31;101217.15;107694;1254;66910;-84
2023/07/06 06:23:42;;;;;;;;;;;;;;;23.41;34.91;101218.10;107475;1252;124784;-83
2023/07/06 06:26:10;;;;;;;;;;;;;;;23.05;35.35;101219.52;107614;1254;61666;-84
2023/07/06 06:28:44;;;;;;;;;;;;;;;22.78;36.09;101221.09;107460;1253;124819;-84
2023/07/06 06:31:12;;;;;;;;;;;;;;;22.59;36.64;101228.03;107383;1254;72391;-84
2023/07/06 06:33:46;;;;;;;;;;;;;;;22.42;37.13;101230.83;107567;1254;67028;-86
2023/07/06 06:36:13;;;;;;;;;;;;;;;22.29;37.45;101230.49;107415;1254;124570;-84
2023/07/06 06:38:42;;;;;;;;;;;;;;;22.15;37.87;101227.45;107779;1254;61011;-84
2023/07/06 06:41:18;;;;;;;;;;;;;;;21.94;38.17;101226.15;107581;1254;124157;-84
2023/07/06 06:43:56;;;;;;;;;;;;;;;21.74;38.69;101224.48;107629;1254;74548;-89
2023/07/06 06:46:23;;;;;;;;;;;;;;;21.63;38.93;101219.63;107592;1253;124421;-84
2023/07/06 06:48:52;;;;;;;;;;;;;;;21.47;39.18;101226.06;107645;1254;72392;-84
2023/07/06 06:51:38;;;;;;;;;;;;;;;21.40;39.70;101229.52;107496;1256;60854;-84
2023/07/06 06:54:06;;;;;;;;;;;;;;;21.28;39.84;101235.73;107393;1254;124281;-84
2023/07/06 06:56:33;;;;;;;;;;;;;;;21.22;40.18;101240.63;107656;1254;72573;-84
2023/07/06 06:59:01;;;;;;;;;;;;;;;21.21;40.30;101243.30;107591;1253;124165;-85
2023/07/06 07:01:31;;;;;;;;;;;;;;;21.18;40.52;101242.98;107595;1256;72483;-86
2023/07/06 07:04:00;;;;;;;;;;;;;;;21.17;40.67;101247.81;107353;1253;62270;-85
2023/07/06 07:06:28;;;;;;;;;;;;;;;21.17;40.92;101251.21;107494;1253;123951;-85
2023/07/06 07:08:57;;;;;;;;;;;;;;;21.17;40.84;101259.24;107666;1253;74662;-85
2023/07/06 07:11:24;;;;;;;;;;;;;;;21.17;40.92;101263.34;107806;1253;124383;-85
2023/07/06 07:13:52;;;;;;;;;;;;;;;21.14;40.71;101267.12;107604;1254;71426;-85
2023/07/06 07:16:21;;;;;;;;;;;;;;;21.11;40.99;101272.67;107203;1254;124212;-85
2023/07/06 07:18:53;;;;;;;;;;;;;;;21.04;40.71;101272.23;107792;1254;59977;-85
2023/07/06 07:21:20;;;;;;;;;;;;;;;20.98;40.90;101273.18;107833;1254;73458;-85
2023/07/06 07:23:54;;;;;;;;;;;;;;;20.93;40.81;101276.27;107500;1254;124551;-86
2023/07/06 07:26:48;;;;;;;;;;;;;;;20.83;41.11;101280.63;107550;1254;71095;-85
2023/07/06 07:29:16;;;;;;;;;;;;;;;20.83;41.47;101275.64;107467;1256;124237;-85
2023/07/06 07:31:49;;;;;;;;;;;;;;;20.88;41.48;101278.44;107428;1254;61366;-87
2023/07/06 07:34:22;;;;;;;;;;;;;;;20.89;41.48;101280.77;107305;1254;124255;-86
2023/07/06 07:36:50;;;;;;;;;;;;;;;20.91;41.71;101288.23;107558;1254;65681;-86
2023/07/06 07:39:19;;;;;;;;;;;;;;;20.94;41.71;101287.84;107747;1255;73129;-83
2023/07/06 07:41:58;;;;;;;;;;;;;;;20.97;41.80;101290.84;107601;1253;124766;-85
2023/07/06 07:44:28;;;;;;;;;;;;;;;21.01;42.09;101295.64;107561;1254;61357;-85
2023/07/06 07:46:55;;;;;;;;;;;;;;;21.05;42.34;101297.91;107507;1254;124199;-85
2023/07/06 07:49:24;;;;;;;;;;;;;;;21.13;42.27;101306.94;107530;1254;67436;-87
2023/07/06 07:51:52;;;;;;;;;;;;;;;21.19;41.95;101310.98;107494;1256;71498;-86
2023/07/06 07:54:30;;;;;;;;;;;;;;;21.24;41.96;101318.42;107221;1254;124001;-86
2023/07/06 07:56:58;;;;;;;;;;;;;;;21.33;41.90;101317.27;107303;1254;60880;-87
2023/07/06 07:59:28;;;;;;;;;;;;;;;21.40;41.81;101317.73;107360;1254;124157;-86
2023/07/06 08:02:02;;;;;;;;;;;;;;;21.46;41.76;101324.11;107468;1254;65768;-86
2023/07/06 08:04:30;;;;;;;;;;;;;;;21.50;41.67;101327.46;107299;1254;124990;-85
2023/07/06 08:06:57;;;;;;;;;;;;;;;21.56;41.70;101318.83;107620;1254;61417;-84
2023/07/06 08:09:28;;;;;;;;;;;;;;;21.63;41.61;101319.29;107745;1254;60458;-83
2023/07/06 08:11:55;;;;;;;;;;;;;;;21.73;41.49;101322.20;107636;1253;124351;-83
2023/07/06 08:14:41;;;;;;;;;;;;;;;21.85;41.46;101320.80;107630;1259;67007;-84
2023/07/06 08:17:10;;;;;;;;;;;;;;;22.02;41.34;101316.83;108075;1254;124044;-85
2023/07/06 08:19:37;;;;;;;;;;;;;;;22.20;41.33;101316.95;108294;1254;59888;-85
2023/07/06 08:22:04;;;;;;;;;;;;;;;22.36;40.92;101318.71;107848;1254;61136;-85
2023/07/06 08:24:32;;;;;;;;;;;;;;;22.53;40.88;101325.27;107625;1254;124533;-85
2023/07/06 08:27:00;;;;;;;;;;;;;;;22.72;40.56;101325.13;107962;1254;67090;-85
2023/07/06 08:29:28;;;;;;;;;;;;;;;22.85;40.30;101320.63;107924;1255;124379;-85
2023/07/06 08:31:56;;;;;;;;;;;;;;;22.96;39.96;101328.30;107394;1254;61642;-84
2023/07/06 08:34:35;;;;;;;;;;;;;;;23.07;39.84;101327.80;107796;1254;124242;-84
2023/07/06 08:37:02;;;;;;;;;;;;;;;23.19;39.64;101328.49;108016;1254;74779;-84
2023/07/06 08:39:33;;;;;;;;;;;;;;;23.35;39.49;101328.00;107768;1254;65569;-84
2023/07/06 08:42:00;;;;;;;;;;;;;;;23.60;39.21;101325.02;107632;1254;124563;-84
2023/07/06 08:44:56;;;;;;;;;;;;;;;23.85;39.09;101333.14;107670;1254;59164;-84
2023/07/06 08:47:25;;;;;;;;;;;;;;;24.14;38.98;101330.20;107614;1253;124140;-85
2023/07/06 08:49:52;;;;;;;;;;;;;;;24.35;38.80;101329.36;107541;1254;73739;-86
2023/07/06 08:52:19;;;;;;;;;;;;;;;24.57;38.59;101332.64;107710;1254;124860;-83
2023/07/06 08:54:48;;;;;;;;;;;;;;;24.72;38.61;101330.30;107922;1254;73145;-84
2023/07/06 08:57:28;;;;;;;;;;;;;;;24.81;38.36;101325.40;108026;1254;59765;-84
2023/07/06 08:59:57;;;;;;;;;;;;;;;24.91;38.31;101330.73;107804;1253;124907;-83
2023/07/06 09:02:49;;;;;;;;;;;;;;;24.91;37.88;101328.02;107623;1254;73594;-83
2023/07/06 09:05:16;;;;;;;;;;;;;;;24.87;37.79;101332.99;107429;1254;124346;-82
2023/07/06 09:07:44;;;;;;;;;;;;;;;24.89;37.74;101338.33;107466;1254;72492;-85
2023/07/06 09:10:12;;;;;;;;;;;;;;;24.85;37.47;101340.58;107248;1254;124239;-82
2023/07/06 09:12:42;;;;;;;;;;;;;;;24.81;37.38;101338.70;107560;1258;61166;-83
2023/07/06 09:15:13;;;;;;;;;;;;;;;24.86;37.44;101340.52;107839;1254;74707;-84
2023/07/06 09:17:45;;;;;;;;;;;;;;;24.92;37.43;101344.34;107479;1254;124055;-83
2023/07/06 09:20:12;;;;;;;;;;;;;;;24.96;37.43;101344.24;107785;1257;72698;-84
2023/07/06 09:22:45;;;;;;;;;;;;;;;25.06;37.18;101340.58;107439;1254;124711;-83
2023/07/06 09:25:17;;;;;;;;;;;;;;;25.21;37.06;101338.23;107734;1254;60283;-83
2023/07/06 09:27:45;;;;;;;;;;;;;;;25.41;37.36;101337.54;107819;1254;73136;-83
2023/07/06 09:30:42;;;;;;;;;;;;;;;25.61;37.21;101334.27;107597;1254;124685;-84
2023/07/06 09:33:24;;;;;;;;;;;;;;;25.83;36.97;101333.45;107571;1256;71889;-84
2023/07/06 09:35:54;;;;;;;;;;;;;;;25.97;36.47;101330.77;107541;1254;124749;-84
2023/07/06 09:38:21;;;;;;;;;;;;;;;25.99;36.01;101325.82;107772;1254;61375;-84
2023/07/06 09:40:49;;;;;;;;;;;;;;;26.03;35.80;101330.39;107552;1255;124555;-84
2023/07/06 09:43:21;;;;;;;;;;;;;;;26.09;35.45;101328.06;107769;1253;65463;-84
2023/07/06 09:45:49;;;;;;;;;;;;;;;26.17;35.29;101324.02;107594;1254;71211;-86
2023/07/06 09:51:39;;;;;;;;;;;;;;;26.38;34.86;101331.10;107932;1254;59978;-85
2023/07/06 09:54:11;;;;;;;;;;;;;;;26.46;34.74;101330.69;107590;1256;124757;-85
2023/07/06 09:56:38;;;;;;;;;;;;;;;26.56;34.83;101334.13;109102;1257;67134;-85
2023/07/06 10:02:26;;;;;;;;;;;;;;;26.62;34.96;101331.65;109246;1254;58939;-84
2023/07/06 10:04:56;;;;;;;;;;;;;;;26.65;34.54;101329.41;107795;1253;124496;-84
2023/07/06 10:07:43;;;;;;;;;;;;;;;26.60;34.50;101328.98;107860;1254;73368;-84
2023/07/06 10:10:13;;;;;;;;;;;;;;;26.53;34.36;101327.74;107735;1254;124974;-84
2023/07/06 10:12:45;;;;;;;;;;;;;;;26.39;34.11;101328.21;108113;1254;73068;-85
2023/07/06 10:15:19;;;;;;;;;;;;;;;26.30;34.03;101320.95;108060;1254;60578;-85
2023/07/06 10:17:49;;;;;;;;;;;;;;;26.29;34.12;101317.36;107531;1254;124851;-85
2023/07/06 10:20:49;;;;;;;;;;;;;;;26.33;34.14;101324.08;107919;1254;73932;-84
2023/07/06 10:23:24;;;;;;;;;;;;;;;26.44;34.31;101319.59;106901;1263;124988;-84
2023/07/06 10:26:17;;;;;;;;;;;;;;;26.56;34.39;101328.02;107018;1263;72762;-84
2023/07/06 10:29:18;;;;;;;;;;;;;;;26.70;33.75;101330.48;106936;1263;124896;-84
2023/07/06 10:31:47;;;;;;;;;;;;;;;26.74;33.45;101335.56;106919;1261;60430;-84
2023/07/06 10:34:23;;;;;;;;;;;;;;;26.72;33.42;101331.11;107113;1261;74952;-84
2023/07/06 10:36:51;;;;;;;;;;;;;;;26.65;33.49;101335.32;107101;1262;67409;-84
2023/07/06 10:39:24;;;;;;;;;;;;;;;26.55;33.53;101338.31;106771;1262;72732;-83
2023/07/06 10:42:09;;;;;;;;;;;;;;;26.40;33.59;101337.33;106676;1262;124106;-84
2023/07/06 10:44:44;;;;;;;;;;;;;;;26.34;33.78;101341.13;106822;1262;59337;-84
2023/07/06 10:47:31;;;;;;;;;;;;;;;26.36;33.68;101343.41;106659;1262;124642;-85
2023/07/06 10:50:07;;;;;;;;;;;;;;;26.43;33.66;101339.05;106855;1262;379847;-85
2023/07/06 10:52:44;;;;;;;;;;;;;;;26.58;33.53;101343.09;106841;1265;124436;-85
2023/07/06 10:55:25;;;;;;;;;;;;;;;26.70;33.51;101344.14;106772;1265;60553;-85
2023/07/06 10:57:58;;;;;;;;;;;;;;;26.87;33.39;101348.80;106703;1263;61264;-85
2023/07/06 11:00:31;;;;;;;;;;;;;;;27.05;33.45;101348.92;107314;1259;124926;-85
2023/07/06 11:03:01;;;;;;;;;;;;;;;27.23;33.20;101352.64;107424;1254;66401;-85
2023/07/06 11:05:28;;;;;;;;;;;;;;;27.42;33.04;101352.35;107238;1254;124563;-84
2023/07/06 11:07:57;;;;;;;;;;;;;;;27.59;32.60;101351.05;107426;1254;61291;-85
2023/07/06 11:10:33;;;;;;;;;;;;;;;27.64;32.20;101352.81;107435;1258;124232;-85
2023/07/06 11:13:08;;;;;;;;;;;;;;;27.76;32.27;101358.70;107734;1254;74495;-85
2023/07/06 11:15:38;;;;;;;;;;;;;;;27.90;32.30;101355.82;107810;1254;66822;-84
2023/07/06 11:18:16;;;;;;;;;;;;;;;28.01;32.07;101358.89;107693;1253;124060;-85
2023/07/06 11:20:59;;;;;;;;;;;;;;;28.06;32.08;101357.42;107731;1254;60534;-85
2023/07/06 11:23:46;;;;;;;;;;;;;;;28.14;31.92;101362.50;107255;1259;124511;-86
2023/07/06 11:26:26;;;;;;;;;;;;;;;28.19;31.80;101361.59;107488;1256;73816;-86
2023/07/06 11:28:53;;;;;;;;;;;;;;;28.24;31.61;101367.02;107347;1257;124802;-85
2023/07/06 11:31:39;;;;;;;;;;;;;;;28.16;31.31;101363.70;107457;1256;71768;-85
2023/07/06 11:34:25;;;;;;;;;;;;;;;28.02;31.22;101368.92;108120;1254;61154;-87
2023/07/06 11:36:56;;;;;;;;;;;;;;;27.86;31.25;101365.90;107979;1254;59987;-85
2023/07/06 11:39:26;;;;;;;;;;;;;;;27.85;31.41;101366.66;107678;1256;73154;-85
2023/07/06 11:41:59;;;;;;;;;;;;;;;27.71;30.76;101374.41;107238;1259;124595;-86
2023/07/06 11:44:29;;;;;;;;;;;;;;;27.52;30.95;101371.83;107426;1260;71954;-82
2023/07/06 11:47:16;;;;;;;;;;;;;;;27.49;30.97;101375.52;107370;1257;125108;-85
2023/07/06 11:49:52;;;;;;;;;;;;;;;27.50;31.03;101378.91;107517;1256;59310;-83
2023/07/06 11:52:45;;;;;;;;;;;;;;;27.57;31.07;101377.98;107481;1258;125074;-83
2023/07/06 11:55:31;;;;;;;;;;;;;;;27.60;30.96;101378.75;107360;1259;65824;-84
2023/07/06 11:58:05;;;;;;;;;;;;;;;27.49;31.11;101380.04;107257;1256;71118;-84
2023/07/06 12:00:37;;;;;;;;;;;;;;;27.38;31.14;101378.80;107671;1257;124858;-84
2023/07/06 12:03:08;;;;;;;;;;;;;;;27.32;30.99;101380.27;108806;1256;59969;-84
2023/07/06 12:05:48;;;;;;;;;;;;;;;27.25;31.28;101385.74;108790;1257;124175;-80
2023/07/06 12:08:19;;;;;;;;;;;;;;;27.11;31.43;101389.25;108813;1254;67008;-80
2023/07/06 12:10:56;;;;;;;;;;;;;;;26.91;31.49;101387.93;107726;1258;124517;-84
2023/07/06 12:13:37;;;;;;;;;;;;;;;26.69;31.53;101388.65;107834;1254;61368;-84
2023/07/06 12:16:05;;;;;;;;;;;;;;;26.53;31.74;101388.58;107500;1257;60497;-83
2023/07/06 12:18:35;;;;;;;;;;;;;;;26.49;31.94;101392.30;107398;1260;124188;-79
2023/07/06 12:21:32;;;;;;;;;;;;;;;26.55;31.96;101385.09;107791;1255;67102;-83
2023/07/06 12:24:36;;;;;;;;;;;;;;;26.70;32.08;101388.95;107701;1259;124174;-83
2023/07/06 12:27:03;;;;;;;;;;;;;;;26.76;31.98;101385.90;107893;1258;61372;-83
2023/07/06 12:29:31;;;;;;;;;;;;;;;26.76;31.95;101384.47;107605;1254;124284;-84
2023/07/06 12:32:00;;;;;;;;;;;;;;;26.82;32.10;101383.92;107764;1259;74590;-83
2023/07/06 12:34:29;;;;;;;;;;;;;;;26.94;32.17;101388.01;107549;1256;124871;-83
2023/07/06 12:37:00;;;;;;;;;;;;;;;27.02;32.18;101390.80;107645;1257;71229;-85
2023/07/06 12:39:31;;;;;;;;;;;;;;;27.15;32.10;101388.40;107863;1254;61365;-85
2023/07/06 12:41:59;;;;;;;;;;;;;;;27.36;31.92;101379.61;107863;1254;124583;-83
2023/07/06 12:44:27;;;;;;;;;;;;;;;27.52;31.94;101375.60;108670;1256;74496;-83
2023/07/06 12:47:01;;;;;;;;;;;;;;;27.73;32.11;101376.48;107539;1254;124487;-83
2023/07/06 12:49:31;;;;;;;;;;;;;;;27.84;31.94;101378.41;107646;1254;72447;-84
2023/07/06 12:52:04;;;;;;;;;;;;;;;27.87;31.55;101373.24;107936;1259;59550;-84